createdAt,value
2019-05-12T00:01:02.305Z,0.00
2019-05-12T00:03:33.572Z,0.00
2019-05-12T00:06:04.528Z,0.00
2019-05-12T00:08:34.364Z,0.00
2019-05-12T00:11:04.962Z,0.00
2019-05-12T00:13:34.690Z,0.00
2019-05-12T00:16:04.445Z,0.00
2019-05-12T00:18:37.742Z,0.00
2019-05-12T00:21:08.912Z,0.00
2019-05-12T00:23:58.191Z,0.00
2019-05-12T00:26:28.451Z,0.00
2019-05-12T00:28:58.832Z,0.00
2019-05-12T00:31:29.006Z,0.00
2019-05-12T00:33:59.547Z,0.00
2019-05-12T00:36:29.434Z,0.00
2019-05-12T00:38:59.203Z,0.00
2019-05-12T00:41:28.820Z,0.00
2019-05-12T00:43:58.760Z,0.00
2019-05-12T00:46:28.518Z,0.00
2019-05-12T00:49:01.107Z,0.00
2019-05-12T00:51:30.744Z,0.00
2019-05-12T00:54:00.569Z,0.00
2019-05-12T00:56:32.518Z,0.00
2019-05-12T00:59:02.944Z,0.00
2019-05-12T01:01:32.685Z,0.00
2019-05-12T01:04:02.443Z,0.00
2019-05-12T01:06:32.122Z,0.00
2019-05-12T01:09:02.946Z,0.00
2019-05-12T01:11:37.753Z,0.00
2019-05-12T01:14:08.600Z,0.00
2019-05-12T01:16:39.562Z,0.00
2019-05-12T01:19:10.704Z,0.00
2019-05-12T01:21:41.325Z,0.00
2019-05-12T01:24:13.223Z,0.00
2019-05-12T01:26:43.124Z,0.00
2019-05-12T01:29:17.664Z,0.00
2019-05-12T01:31:55.003Z,0.00
2019-05-12T01:34:27.607Z,0.00
2019-05-12T01:36:58.620Z,0.00
2019-05-12T01:39:29.284Z,0.00
2019-05-12T01:41:59.227Z,0.00
2019-05-12T01:44:28.807Z,0.00
2019-05-12T01:46:58.569Z,0.00
2019-05-12T01:49:29.026Z,0.00
2019-05-12T01:52:01.594Z,0.00
2019-05-12T01:54:31.983Z,0.00
2019-05-12T01:57:01.703Z,0.00
2019-05-12T01:59:31.483Z,0.00
2019-05-12T02:02:01.644Z,0.00
2019-05-12T02:04:33.201Z,0.00
2019-05-12T02:07:04.502Z,0.00
2019-05-12T02:09:38.622Z,0.00
2019-05-12T02:12:08.222Z,0.00
2019-05-12T02:14:38.331Z,0.00
2019-05-12T02:17:08.791Z,0.00
2019-05-12T02:19:38.664Z,0.00
2019-05-12T02:22:08.545Z,0.00
2019-05-12T02:24:39.318Z,0.00
2019-05-12T02:27:09.069Z,0.00
2019-05-12T02:29:39.196Z,0.00
2019-05-12T02:32:08.967Z,0.00
2019-05-12T02:34:38.511Z,0.00
2019-05-12T02:37:08.540Z,0.00
2019-05-12T02:39:38.309Z,0.00
2019-05-12T02:42:08.044Z,0.00
2019-05-12T02:44:37.833Z,0.00
2019-05-12T02:47:07.564Z,0.00
2019-05-12T02:49:38.488Z,0.00
2019-05-12T02:52:08.312Z,0.00
2019-05-12T02:54:54.495Z,0.00
2019-05-12T02:57:14.350Z,0.00
2019-05-12T02:59:45.228Z,0.00
2019-05-12T03:02:16.358Z,0.00
2019-05-12T03:04:46.386Z,0.00
2019-05-12T03:07:17.674Z,0.00
2019-05-12T03:09:51.018Z,0.00
2019-05-12T03:12:20.750Z,0.00
2019-05-12T03:14:50.539Z,0.00
2019-05-12T03:17:20.116Z,0.00
2019-05-12T03:19:50.006Z,0.00
2019-05-12T03:22:19.867Z,0.00
2019-05-12T03:25:06.454Z,0.00
2019-05-12T03:27:25.300Z,0.00
2019-05-12T03:29:55.286Z,0.00
2019-05-12T03:32:28.217Z,0.00
2019-05-12T03:34:58.520Z,0.00
2019-05-12T03:37:31.437Z,0.00
2019-05-12T03:39:59.589Z,0.00
2019-05-12T03:42:29.291Z,0.00
2019-05-12T03:45:00.664Z,0.00
2019-05-12T03:47:30.468Z,0.00
2019-05-12T03:50:00.836Z,0.00
2019-05-12T03:52:30.622Z,0.00
2019-05-12T03:55:00.283Z,0.00
2019-05-12T03:57:30.035Z,0.00
2019-05-12T04:00:04.944Z,0.00
2019-05-12T04:02:34.137Z,0.00
2019-05-12T04:05:05.670Z,0.00
2019-05-12T04:07:35.943Z,0.00
2019-05-12T04:10:06.894Z,0.00
2019-05-12T04:12:36.609Z,0.00
2019-05-12T04:15:07.385Z,0.00
2019-05-12T04:17:37.224Z,0.00
2019-05-12T04:20:07.525Z,0.00
2019-05-12T04:22:37.674Z,0.00
2019-05-12T04:25:07.511Z,0.00
2019-05-12T04:27:37.206Z,0.00
2019-05-12T04:30:09.922Z,0.00
2019-05-12T04:32:40.747Z,0.00
2019-05-12T04:35:10.857Z,0.00
2019-05-12T04:37:40.502Z,0.00
2019-05-12T04:40:10.323Z,0.00
2019-05-12T04:42:40.202Z,0.00
2019-05-12T04:45:09.964Z,0.00
2019-05-12T04:47:39.964Z,0.00
2019-05-12T04:50:09.705Z,0.00
2019-05-12T04:52:39.481Z,0.00
2019-05-12T04:55:09.308Z,0.00
2019-05-12T04:57:39.049Z,0.00
2019-05-12T05:00:09.629Z,0.00
2019-05-12T05:02:39.467Z,0.00
2019-05-12T05:05:09.403Z,0.00
2019-05-12T05:07:39.184Z,0.00
2019-05-12T05:10:08.924Z,0.00
2019-05-12T05:12:38.723Z,0.00
2019-05-12T05:15:08.604Z,0.00
2019-05-12T05:17:38.344Z,0.00
2019-05-12T05:20:08.964Z,0.00
2019-05-12T05:22:38.725Z,0.00
2019-05-12T05:25:09.144Z,0.00
2019-05-12T05:27:40.443Z,0.00
2019-05-12T05:30:10.702Z,0.00
2019-05-12T05:32:40.470Z,0.00
2019-05-12T05:35:10.303Z,0.00
2019-05-12T05:37:43.573Z,0.00
2019-05-12T05:40:14.084Z,0.00
2019-05-12T05:42:44.177Z,0.00
2019-05-12T05:45:19.566Z,0.00
2019-05-12T05:47:48.847Z,0.00
2019-05-12T05:50:18.368Z,0.00
2019-05-12T05:52:48.644Z,0.00
2019-05-12T05:55:20.321Z,0.00
2019-05-12T05:57:50.416Z,0.00
2019-05-12T06:00:25.601Z,0.00
2019-05-12T06:02:54.654Z,0.00
2019-05-12T06:05:30.685Z,0.00
2019-05-12T06:07:57.705Z,0.00
2019-05-12T06:10:35.323Z,0.00
2019-05-12T06:13:00.504Z,0.00
2019-05-12T06:15:35.715Z,0.00
2019-05-12T06:18:03.645Z,0.00
2019-05-12T06:20:37.729Z,0.00
2019-05-12T06:23:05.468Z,0.00
2019-05-12T06:25:46.136Z,0.00
2019-05-12T06:28:08.905Z,0.00
2019-05-12T06:30:44.251Z,0.00
2019-05-12T06:33:11.122Z,0.00
2019-05-12T06:35:45.365Z,0.00
2019-05-12T06:38:15.046Z,0.00
2019-05-12T06:40:45.570Z,0.00
2019-05-12T06:43:15.804Z,0.00
2019-05-12T06:45:50.407Z,0.00
2019-05-12T06:48:28.423Z,0.00
2019-05-12T06:50:54.987Z,0.00
2019-05-12T06:53:29.043Z,0.00
2019-05-12T06:55:56.682Z,0.00
2019-05-12T06:58:31.330Z,0.00
2019-05-12T07:01:04.404Z,0.00
2019-05-12T07:03:31.481Z,0.00
2019-05-12T07:06:09.063Z,0.00
2019-05-12T07:08:38.517Z,0.00
2019-05-12T07:11:08.475Z,0.00
2019-05-12T07:13:38.442Z,0.00
2019-05-12T07:16:21.804Z,0.00
2019-05-12T07:18:47.684Z,0.00
2019-05-12T07:21:20.143Z,0.00
2019-05-12T07:23:49.345Z,0.00
2019-05-12T07:26:23.776Z,0.00
2019-05-12T07:28:54.051Z,0.00
2019-05-12T07:31:24.144Z,0.00
2019-05-12T07:33:54.324Z,0.00
2019-05-12T07:36:26.001Z,0.00
2019-05-12T07:39:04.053Z,0.00
2019-05-12T07:41:28.560Z,0.00
2019-05-12T07:44:00.915Z,0.00
2019-05-12T07:46:30.684Z,0.00
2019-05-12T07:49:00.412Z,0.00
2019-05-12T07:51:35.363Z,0.00
2019-05-12T07:54:03.897Z,0.00
2019-05-12T07:56:35.776Z,0.00
2019-05-12T07:59:06.604Z,0.00
2019-05-12T08:01:46.634Z,0.00
2019-05-12T08:04:13.310Z,0.00
2019-05-12T08:06:46.761Z,0.00
2019-05-12T08:09:14.905Z,0.00
2019-05-12T08:11:44.579Z,0.00
2019-05-12T08:14:25.051Z,0.00
2019-05-12T08:16:46.824Z,0.00
2019-05-12T08:19:23.898Z,0.00
2019-05-12T08:21:50.570Z,0.00
2019-05-12T08:24:23.514Z,0.00
2019-05-12T08:26:59.724Z,0.00
2019-05-12T08:29:27.184Z,0.00
2019-05-12T08:31:56.983Z,0.00
2019-05-12T08:34:26.805Z,0.00
2019-05-12T08:36:58.134Z,0.00
2019-05-12T08:39:28.006Z,0.00
2019-05-12T08:41:57.823Z,0.00
2019-05-12T08:44:33.461Z,0.00
2019-05-12T08:47:00.496Z,0.00
2019-05-12T08:49:35.928Z,0.00
2019-05-12T08:52:03.858Z,0.00
2019-05-12T08:54:33.805Z,0.00
2019-05-12T08:57:03.966Z,0.00
2019-05-12T08:59:34.472Z,0.00
2019-05-12T09:02:07.400Z,0.00
2019-05-12T09:04:37.077Z,0.00
2019-05-12T09:07:07.632Z,0.00
2019-05-12T09:09:40.026Z,0.00
2019-05-12T09:12:09.804Z,0.00
2019-05-12T09:14:41.220Z,0.00
2019-05-12T09:17:13.852Z,0.00
2019-05-12T09:19:43.790Z,0.00
2019-05-12T09:22:18.530Z,0.00
2019-05-12T09:24:47.779Z,0.00
2019-05-12T09:27:17.651Z,0.00
2019-05-12T09:29:49.589Z,0.00
2019-05-12T09:32:19.443Z,0.00
2019-05-12T09:34:53.216Z,0.00
2019-05-12T09:37:24.065Z,0.00
2019-05-12T09:39:53.929Z,0.00
2019-05-12T09:42:28.566Z,0.00
2019-05-12T09:45:00.032Z,0.00
2019-05-12T09:47:28.741Z,0.00
2019-05-12T09:49:58.970Z,0.00
2019-05-12T09:52:29.836Z,0.00
2019-05-12T09:54:59.649Z,0.00
2019-05-12T09:57:32.462Z,0.00
2019-05-12T10:00:00.779Z,0.00
2019-05-12T10:02:30.609Z,0.00
2019-05-12T10:05:01.152Z,0.00
2019-05-12T10:07:34.089Z,0.00
2019-05-12T10:10:05.289Z,0.00
2019-05-12T10:12:38.734Z,0.00
2019-05-12T10:15:10.529Z,0.00
2019-05-12T10:17:43.269Z,0.00
2019-05-12T10:20:13.671Z,0.00
2019-05-12T10:22:43.935Z,0.00
2019-05-12T10:25:15.711Z,0.00
2019-05-12T10:27:45.471Z,0.00
2019-05-12T10:30:17.387Z,0.00
2019-05-12T10:32:47.233Z,0.00
2019-05-12T10:35:21.388Z,0.00
2019-05-12T10:37:49.858Z,0.00
2019-05-12T10:40:23.230Z,0.00
2019-05-12T10:42:54.798Z,0.00
2019-05-12T10:45:32.551Z,0.00
2019-05-12T10:48:04.777Z,0.00
2019-05-12T10:50:38.273Z,0.00
2019-05-12T10:53:09.849Z,0.00
2019-05-12T10:55:39.905Z,0.00
2019-05-12T10:58:11.245Z,0.00
2019-05-12T11:00:44.211Z,0.00
2019-05-12T11:03:15.516Z,0.00
2019-05-12T11:05:45.646Z,0.00
2019-05-12T11:08:16.099Z,0.00
2019-05-12T11:10:59.355Z,0.00
2019-05-12T11:13:26.547Z,0.00
2019-05-12T11:15:57.629Z,0.00
2019-05-12T11:18:30.403Z,0.00
2019-05-12T11:20:58.966Z,0.00
2019-05-12T11:23:29.946Z,0.00
2019-05-12T11:26:11.486Z,0.00
2019-05-12T11:28:41.324Z,0.00
2019-05-12T11:31:11.110Z,0.00
2019-05-12T11:33:40.864Z,0.00
2019-05-12T11:36:13.591Z,0.00
2019-05-12T11:38:44.445Z,0.00
2019-05-12T11:41:19.933Z,0.00
2019-05-12T11:43:46.808Z,0.00
2019-05-12T11:46:16.578Z,0.00
2019-05-12T11:48:50.279Z,0.00
2019-05-12T11:51:28.945Z,0.00
2019-05-12T11:53:53.023Z,0.00
2019-05-12T11:56:24.347Z,0.00
2019-05-12T11:58:54.441Z,0.00
2019-05-12T12:01:25.862Z,0.00
2019-05-12T12:03:56.807Z,0.00
2019-05-12T12:06:26.646Z,0.00
2019-05-12T12:08:56.725Z,0.00
2019-05-12T12:11:28.870Z,0.00
2019-05-12T12:14:11.113Z,0.00
2019-05-12T12:16:50.068Z,0.00
2019-05-12T12:19:15.151Z,0.00
2019-05-12T12:21:49.891Z,29.45
2019-05-12T12:24:21.229Z,45.91
2019-05-12T12:26:49.016Z,51.75
2019-05-12T12:29:19.824Z,25.62
2019-05-12T12:31:54.065Z,48.14
2019-05-12T12:34:29.943Z,56.68
2019-05-12T12:36:55.818Z,96.47
2019-05-12T12:39:25.627Z,89.05
2019-05-12T12:42:00.546Z,62.54
2019-05-12T12:44:27.464Z,46.36
2019-05-12T12:47:00.481Z,62.99
2019-05-12T12:49:33.927Z,57.61
2019-05-12T12:52:06.385Z,54.46
2019-05-12T12:54:36.247Z,58.72
2019-05-12T12:57:09.773Z,56.46
2019-05-12T12:59:45.451Z,78.96
2019-05-12T13:02:15.131Z,96.47
2019-05-12T13:04:50.053Z,92.85
2019-05-12T13:07:16.986Z,100.00
2019-05-12T13:09:55.018Z,100.00
2019-05-12T13:12:21.507Z,99.14
2019-05-12T13:14:53.210Z,100.00
2019-05-12T13:17:29.013Z,100.00
2019-05-12T13:19:58.714Z,100.00
2019-05-12T13:22:29.782Z,100.00
2019-05-12T13:25:04.520Z,100.00
2019-05-12T13:27:36.137Z,100.00
2019-05-12T13:30:05.616Z,100.00
2019-05-12T13:32:37.926Z,100.00
2019-05-12T13:35:09.897Z,93.33
2019-05-12T13:37:39.762Z,75.37
2019-05-12T13:40:12.884Z,66.81
2019-05-12T13:42:44.246Z,79.62
2019-05-12T13:45:16.386Z,100.00
2019-05-12T13:47:46.492Z,100.00
2019-05-12T13:50:21.467Z,100.00
2019-05-12T13:52:49.298Z,100.00
2019-05-12T13:55:19.184Z,100.00
2019-05-12T13:57:56.262Z,100.00
2019-05-12T14:00:23.585Z,100.00
2019-05-12T14:02:55.543Z,100.00
2019-05-12T14:05:24.986Z,100.00
2019-05-12T14:07:57.277Z,100.00
2019-05-12T14:10:29.406Z,100.00
2019-05-12T14:12:58.456Z,100.00
2019-05-12T14:15:29.825Z,100.00
2019-05-12T14:17:59.705Z,100.00
2019-05-12T14:20:29.467Z,100.00
2019-05-12T14:22:59.395Z,100.00
2019-05-12T14:25:33.035Z,65.25
2019-05-12T14:28:09.274Z,46.58
2019-05-12T14:30:41.162Z,43.41
2019-05-12T14:33:10.326Z,34.63
2019-05-12T14:35:45.391Z,26.28
2019-05-12T14:38:14.236Z,14.55
2019-05-12T14:40:44.300Z,3.72
2019-05-12T14:43:19.155Z,0.00
2019-05-12T14:45:45.870Z,0.00
2019-05-12T14:48:16.906Z,0.00
2019-05-12T14:50:48.967Z,0.00
2019-05-12T14:53:20.544Z,0.00
2019-05-12T14:55:50.710Z,0.00
2019-05-12T14:58:23.758Z,0.00
2019-05-12T15:00:58.148Z,0.00
2019-05-12T15:03:29.363Z,0.00
2019-05-12T15:05:59.304Z,0.00
2019-05-12T15:08:36.140Z,0.00
2019-05-12T15:11:03.849Z,0.00
2019-05-12T15:13:34.383Z,0.00
2019-05-12T15:16:04.454Z,0.00
2019-05-12T15:18:39.632Z,0.00
2019-05-12T15:21:06.366Z,0.00
2019-05-12T15:23:37.446Z,0.00
2019-05-12T15:26:21.497Z,0.00
2019-05-12T15:28:57.586Z,0.00
2019-05-12T15:31:27.452Z,0.00
2019-05-12T15:33:59.651Z,0.00
2019-05-12T15:36:43.607Z,0.00
2019-05-12T15:39:16.335Z,0.00
2019-05-12T15:41:51.093Z,0.00
2019-05-12T15:44:23.194Z,0.00
2019-05-12T15:46:49.927Z,0.00
2019-05-12T15:49:19.987Z,0.00
2019-05-12T15:51:54.372Z,0.00
2019-05-12T15:54:22.448Z,0.00
2019-05-12T15:56:55.638Z,0.00
2019-05-12T15:59:27.037Z,0.00
2019-05-12T16:02:09.587Z,0.00
2019-05-12T16:04:34.641Z,0.00
2019-05-12T16:07:03.982Z,0.00
2019-05-12T16:09:40.469Z,0.00
2019-05-12T16:12:19.954Z,0.00
2019-05-12T16:14:44.083Z,0.00
2019-05-12T16:17:16.795Z,0.00
2019-05-12T16:19:46.200Z,0.00
2019-05-12T16:22:17.208Z,0.00
2019-05-12T16:24:48.860Z,0.00
2019-05-12T16:27:27.278Z,0.00
2019-05-12T16:29:55.618Z,0.00
2019-05-12T16:32:32.468Z,0.00
2019-05-12T16:34:59.641Z,0.00
2019-05-12T16:37:31.629Z,0.00
2019-05-12T16:40:06.674Z,0.00
2019-05-12T16:42:40.796Z,0.00
2019-05-12T16:45:10.495Z,0.00
2019-05-12T16:47:40.349Z,0.00
2019-05-12T16:50:23.696Z,0.00
2019-05-12T16:52:48.458Z,0.00
2019-05-12T16:55:19.908Z,0.00
2019-05-12T16:57:52.688Z,0.00
2019-05-12T17:00:24.444Z,0.00
2019-05-12T17:02:58.116Z,0.00
2019-05-12T17:05:28.173Z,0.00
2019-05-12T17:08:04.209Z,0.00
2019-05-12T17:10:36.035Z,0.00
2019-05-12T17:13:13.749Z,0.00
2019-05-12T17:15:43.167Z,0.00
2019-05-12T17:18:13.736Z,0.00
2019-05-12T17:20:47.043Z,0.00
2019-05-12T17:23:19.468Z,0.00
2019-05-12T17:25:50.013Z,0.00
2019-05-12T17:28:24.686Z,0.00
2019-05-12T17:30:55.652Z,0.00
2019-05-12T17:33:27.953Z,0.00
2019-05-12T17:36:03.135Z,0.00
2019-05-12T17:38:34.108Z,0.00
2019-05-12T17:41:06.907Z,0.00
2019-05-12T17:43:59.557Z,0.00
2019-05-12T17:46:18.600Z,0.00
2019-05-12T17:48:49.690Z,0.00
2019-05-12T17:51:20.512Z,0.00
2019-05-12T17:53:54.020Z,0.00
2019-05-12T17:56:25.186Z,0.00
2019-05-12T17:58:56.854Z,0.00
2019-05-12T18:01:31.207Z,0.00
2019-05-12T18:04:04.098Z,0.00
2019-05-12T18:06:35.557Z,0.00
2019-05-12T18:09:15.666Z,0.00
2019-05-12T18:11:54.226Z,0.00
2019-05-12T18:14:27.330Z,0.00
2019-05-12T18:17:02.812Z,0.00
2019-05-12T18:19:27.831Z,0.00
2019-05-12T18:22:03.088Z,0.00
2019-05-12T18:24:34.337Z,0.00
2019-05-12T18:27:07.708Z,0.00
2019-05-12T18:29:36.030Z,0.00
2019-05-12T18:32:08.539Z,0.00
2019-05-12T18:34:40.983Z,0.00
2019-05-12T18:37:13.415Z,0.00
2019-05-12T18:39:43.624Z,0.00
2019-05-12T18:45:11.958Z,0.00
2019-05-12T18:47:38.675Z,0.00
2019-05-12T18:50:10.362Z,0.00
2019-05-12T18:52:46.206Z,0.00
2019-05-12T18:55:17.589Z,0.00
2019-05-12T18:57:50.063Z,0.00
2019-05-12T19:00:23.346Z,0.00
2019-05-12T19:02:54.525Z,0.00
2019-05-12T19:08:16.591Z,0.00
2019-05-12T19:10:51.199Z,0.00
2019-05-12T19:13:23.829Z,0.00
2019-05-12T19:16:02.459Z,0.00
2019-05-12T19:21:20.084Z,0.00
2019-05-12T19:24:00.499Z,0.00
2019-05-12T19:26:32.854Z,0.00
2019-05-12T19:29:05.565Z,0.00
2019-05-12T19:31:45.259Z,0.00
2019-05-12T19:34:19.807Z,0.00
2019-05-12T19:36:49.516Z,0.00
2019-05-12T19:39:20.647Z,0.00
2019-05-12T19:41:50.569Z,0.00
2019-05-12T19:44:26.523Z,0.00
2019-05-12T19:46:59.307Z,0.00
2019-05-12T19:49:45.959Z,0.00
2019-05-12T19:52:03.587Z,0.00
2019-05-12T19:54:36.668Z,0.00
2019-05-12T19:57:06.489Z,0.00
2019-05-12T19:59:50.589Z,0.00
2019-05-12T20:02:16.375Z,0.00
2019-05-12T20:07:35.973Z,0.00
2019-05-12T20:10:13.886Z,0.00
2019-05-12T20:12:48.773Z,0.00
2019-05-12T20:15:15.919Z,0.00
2019-05-12T20:17:48.848Z,0.00
2019-05-12T20:20:19.705Z,0.00
2019-05-12T20:22:58.642Z,0.00
2019-05-12T20:25:28.539Z,0.00
2019-05-12T20:28:05.642Z,0.00
2019-05-12T20:30:30.640Z,0.00
2019-05-12T20:33:04.149Z,0.00
2019-05-12T20:35:33.887Z,0.00
2019-05-12T20:38:06.000Z,0.00
2019-05-12T20:40:37.664Z,0.00
2019-05-12T20:43:08.572Z,0.00
2019-05-12T20:45:40.669Z,0.00
2019-05-12T20:48:11.095Z,0.00
2019-05-12T20:50:43.557Z,0.00
2019-05-12T20:53:14.433Z,0.00
2019-05-12T20:55:45.052Z,0.00
2019-05-12T20:58:15.939Z,0.00
2019-05-12T21:00:50.259Z,0.00
2019-05-12T21:03:24.335Z,0.00
2019-05-12T21:05:58.100Z,0.00
2019-05-12T21:08:25.742Z,0.00
2019-05-12T21:10:58.089Z,0.00
2019-05-12T21:13:31.823Z,0.00
2019-05-12T21:16:15.778Z,0.00
2019-05-12T21:18:46.905Z,0.00
2019-05-12T21:21:05.530Z,0.00
2019-05-12T21:23:36.192Z,0.00
2019-05-12T21:26:06.749Z,0.00
2019-05-12T21:28:37.283Z,0.00
2019-05-12T21:31:08.020Z,0.00
2019-05-12T21:33:41.657Z,0.00
2019-05-12T21:36:09.227Z,0.00
2019-05-12T21:38:39.014Z,0.00
2019-05-12T21:41:10.083Z,0.00
2019-05-12T21:43:40.442Z,0.00
2019-05-12T21:46:12.626Z,0.00
2019-05-12T21:48:41.830Z,0.00
2019-05-12T21:51:16.471Z,0.00
2019-05-12T21:53:44.374Z,0.00
2019-05-12T21:56:14.169Z,0.00
2019-05-12T21:58:53.367Z,0.00
2019-05-12T22:01:15.977Z,0.00
2019-05-12T22:03:57.818Z,0.00
2019-05-12T22:06:21.900Z,0.00
2019-05-12T22:08:55.373Z,0.00
2019-05-12T22:11:23.927Z,0.00
2019-05-12T22:13:59.561Z,0.00
2019-05-12T22:16:29.657Z,0.00
2019-05-12T22:18:59.471Z,0.00
2019-05-12T22:21:28.689Z,0.00
2019-05-12T22:23:58.562Z,0.00
2019-05-12T22:26:30.701Z,0.00
2019-05-12T22:28:59.804Z,0.00
2019-05-12T22:31:29.525Z,0.00
2019-05-12T22:33:59.498Z,0.00
2019-05-12T22:36:30.216Z,0.00
2019-05-12T22:39:01.124Z,0.00
2019-05-12T22:41:36.975Z,0.00
2019-05-12T22:44:02.889Z,0.00
2019-05-12T22:46:35.748Z,0.00
2019-05-12T22:49:04.755Z,0.00
2019-05-12T22:51:34.502Z,0.00
2019-05-12T22:54:06.853Z,0.00
2019-05-12T22:56:36.869Z,0.00
2019-05-12T22:59:06.645Z,0.00
2019-05-12T23:01:41.730Z,0.00
2019-05-12T23:04:08.777Z,0.00
2019-05-12T23:06:42.172Z,0.00
2019-05-12T23:09:10.021Z,0.00
2019-05-12T23:11:39.910Z,0.00
2019-05-12T23:14:12.702Z,0.00
2019-05-12T23:16:44.308Z,0.00
2019-05-12T23:19:15.088Z,0.00
2019-05-12T23:21:49.358Z,0.00
2019-05-12T23:24:16.266Z,0.00
2019-05-12T23:26:47.918Z,0.00
2019-05-12T23:29:20.524Z,0.00
2019-05-12T23:31:48.839Z,0.00
2019-05-12T23:34:18.637Z,0.00
2019-05-12T23:36:50.462Z,0.00
2019-05-12T23:39:19.797Z,0.00
2019-05-12T23:41:49.584Z,0.00
2019-05-12T23:44:19.226Z,0.00
2019-05-12T23:46:48.941Z,0.00
2019-05-12T23:49:18.711Z,0.00
2019-05-12T23:51:48.487Z,0.00
2019-05-12T23:54:18.234Z,0.00
2019-05-12T23:56:48.019Z,0.00
2019-05-12T23:59:17.757Z,0.00
